Skip Navigation Links Skip Navigation Links

Current Weather

Petaluma Muni, Petaluma, Calif.

For information only: do not use for flight planning or navigation.
Latest weather
Observation time Tuesday, October 19, 2021 1:15 AM PDT
Local time Tuesday, October 19, 2021 1:36 AM PDT
Flight conditions Visual Meteorological Conditions
Winds
Wind speed calm
Visibility 10 mi.
Sky condition
Ceiling unlimited
Sky clear
Temperature 43°F
Dewpoint 43°F
Altimeter 30.05 in.Hg
Derived measurements
Relative humidity 100%
Wind chill 43°F
Density altitude -1012 ft.
Remarks
Fully automated report.
METAR KO69 190815Z AUTO 00000KT 10SM CLR 06/06 A3005 RMK A01

Settings

Location code

InnerDrive.Weather 4.0.6770.0 Release CLR 4.0.30319.42000
Copyright ©2018 Inner Drive Technology. All rights reserved. Portions Copyright ©1986-2018 David Braverman.

Find weather

Site navigation


Skip Navigation Links

Place info

Page info

PayPal - The safer, easier way to pay online!

Return home.

Copyright ©2021 Inner Drive Technology. Purveyors of fine, hand-crafted computer software. Page printed 2021-10-19T08:36:48 UTC.